createdAt,value
2023-01-25T00:00:20.129Z,6.07
2023-01-25T00:02:48.531Z,5.40
2023-01-25T00:05:16.927Z,5.97
2023-01-25T00:07:45.390Z,7.13
2023-01-25T00:10:13.939Z,7.80
2023-01-25T00:12:43.746Z,8.70
2023-01-25T00:15:12.620Z,8.63
2023-01-25T00:17:41.204Z,9.17
2023-01-25T00:20:10.195Z,9.17
2023-01-25T00:22:38.599Z,9.80
2023-01-25T00:25:07.735Z,9.13
2023-01-25T00:27:36.470Z,9.37
2023-01-25T00:30:06.760Z,9.27
2023-01-25T00:32:39.164Z,9.13
2023-01-25T00:35:08.158Z,10.00
2023-01-25T00:37:38.619Z,10.03
2023-01-25T00:40:08.114Z,9.77
2023-01-25T00:42:36.512Z,9.67
2023-01-25T00:45:06.822Z,9.30
2023-01-25T00:47:35.401Z,8.67
2023-01-25T00:50:03.815Z,9.20
2023-01-25T00:52:32.216Z,8.53
2023-01-25T00:55:01.831Z,8.00
2023-01-25T00:57:30.200Z,7.50
2023-01-25T00:59:58.599Z,7.77
2023-01-25T01:02:28.408Z,7.90
2023-01-25T01:04:56.868Z,8.47
2023-01-25T01:07:25.308Z,7.87
2023-01-25T01:09:53.779Z,8.03
2023-01-25T01:12:22.477Z,7.90
2023-01-25T01:14:50.903Z,7.57
2023-01-25T01:17:19.339Z,8.20
2023-01-25T01:19:49.111Z,7.03
2023-01-25T01:22:17.575Z,7.67
2023-01-25T01:24:46.092Z,7.90
2023-01-25T01:27:14.502Z,7.87
2023-01-25T01:29:42.951Z,8.07
2023-01-25T01:32:11.433Z,7.53
2023-01-25T01:34:39.867Z,8.13
2023-01-25T01:37:09.654Z,8.00
2023-01-25T01:39:38.069Z,7.30
2023-01-25T01:42:06.604Z,7.80
2023-01-25T01:44:46.152Z,7.30
2023-01-25T01:47:15.968Z,8.07
2023-01-25T01:49:48.107Z,7.47
2023-01-25T01:52:18.711Z,7.47
2023-01-25T01:54:50.499Z,7.80
2023-01-25T01:57:20.482Z,6.70
2023-01-25T01:59:51.251Z,9.03
2023-01-25T02:02:19.823Z,7.60
2023-01-25T02:04:49.309Z,7.70
2023-01-25T02:07:20.371Z,7.80
2023-01-25T02:09:49.104Z,7.40
2023-01-25T02:12:17.923Z,7.27
2023-01-25T02:14:48.549Z,7.93
2023-01-25T02:17:17.000Z,7.03
2023-01-25T02:19:51.350Z,7.70
2023-01-25T02:22:23.028Z,7.33
2023-01-25T02:24:55.114Z,7.67
2023-01-25T02:27:24.900Z,7.17
2023-01-25T02:29:53.563Z,7.93
2023-01-25T02:32:21.991Z,7.27
2023-01-25T02:34:50.428Z,7.40
2023-01-25T02:37:19.045Z,7.63
2023-01-25T02:39:47.553Z,7.07
2023-01-25T02:42:15.925Z,7.10
2023-01-25T02:44:46.094Z,8.10
2023-01-25T02:47:14.516Z,7.93
2023-01-25T02:49:42.937Z,7.67
2023-01-25T02:52:11.365Z,7.70
2023-01-25T02:54:40.144Z,7.60
2023-01-25T02:57:08.543Z,7.40
2023-01-25T02:59:36.940Z,7.60
2023-01-25T03:02:08.189Z,7.87
2023-01-25T03:04:36.584Z,8.30
2023-01-25T03:07:05.007Z,7.47
2023-01-25T03:09:33.424Z,6.73
2023-01-25T03:12:01.970Z,7.23
2023-01-25T03:14:30.355Z,7.47
2023-01-25T03:16:58.777Z,7.30
2023-01-25T03:19:28.578Z,7.57
2023-01-25T03:21:58.033Z,7.17
2023-01-25T03:24:26.479Z,6.67
2023-01-25T03:27:14.216Z,7.40
2023-01-25T03:29:42.947Z,7.47
2023-01-25T03:32:11.491Z,7.60
2023-01-25T03:34:41.305Z,7.27
2023-01-25T03:37:09.745Z,7.70
2023-01-25T03:39:38.127Z,7.70
2023-01-25T03:42:06.754Z,8.03
2023-01-25T03:44:35.177Z,6.97
2023-01-25T03:47:03.725Z,7.53
2023-01-25T03:49:32.161Z,7.13
2023-01-25T03:52:01.975Z,6.80
2023-01-25T03:54:30.386Z,7.00
2023-01-25T03:56:58.784Z,6.77
2023-01-25T03:59:27.312Z,6.63
2023-01-25T04:01:55.847Z,6.67
2023-01-25T04:04:24.282Z,6.47
2023-01-25T04:06:52.724Z,6.13
2023-01-25T04:09:22.824Z,7.63
2023-01-25T04:11:51.715Z,7.07
2023-01-25T04:14:31.755Z,7.27
2023-01-25T04:17:05.499Z,6.80
2023-01-25T04:19:33.989Z,7.23
2023-01-25T04:22:02.383Z,7.03
2023-01-25T04:24:32.164Z,7.40
2023-01-25T04:27:00.579Z,7.33
2023-01-25T04:29:40.550Z,6.60
2023-01-25T04:32:09.882Z,6.23
2023-01-25T04:34:38.519Z,6.77
2023-01-25T04:37:06.944Z,6.33
2023-01-25T04:39:36.751Z,7.03
2023-01-25T04:42:05.294Z,6.80
2023-01-25T04:44:33.680Z,6.33
2023-01-25T04:47:02.093Z,6.20
2023-01-25T04:49:30.475Z,7.13
2023-01-25T04:51:58.976Z,6.67
2023-01-25T04:54:27.924Z,6.30
2023-01-25T04:56:57.674Z,6.33
2023-01-25T04:59:26.058Z,5.97
2023-01-25T05:01:54.530Z,7.20
2023-01-25T05:04:23.033Z,6.43
2023-01-25T05:06:51.445Z,6.03
2023-01-25T05:09:19.890Z,6.37
2023-01-25T05:11:48.355Z,6.73
2023-01-25T05:14:18.151Z,6.83
2023-01-25T05:16:47.517Z,7.63
2023-01-25T05:19:16.003Z,7.17
2023-01-25T05:21:59.589Z,6.37
2023-01-25T05:24:28.312Z,6.43
2023-01-25T05:27:03.645Z,7.97
2023-01-25T05:29:35.844Z,7.63
2023-01-25T05:32:04.700Z,7.30
2023-01-25T05:34:33.357Z,7.00
2023-01-25T05:37:01.897Z,7.57
2023-01-25T05:39:30.398Z,7.83
2023-01-25T05:41:58.788Z,6.73
2023-01-25T05:44:27.505Z,7.07
2023-01-25T05:46:57.305Z,6.57
2023-01-25T05:49:25.685Z,6.63
2023-01-25T05:51:54.107Z,7.00
2023-01-25T05:54:22.524Z,6.90
2023-01-25T05:56:51.579Z,7.40
2023-01-25T05:59:20.105Z,7.17
2023-01-25T06:01:48.576Z,7.00
2023-01-25T06:04:19.199Z,6.23
2023-01-25T06:06:47.634Z,6.37
2023-01-25T06:09:16.690Z,6.70
2023-01-25T06:11:46.314Z,6.97
2023-01-25T06:14:14.746Z,6.73
2023-01-25T06:16:43.190Z,7.60
2023-01-25T06:19:11.603Z,7.43
2023-01-25T06:21:41.395Z,7.10
2023-01-25T06:24:10.061Z,7.47
2023-01-25T06:26:38.481Z,7.40
2023-01-25T06:29:07.473Z,6.77
2023-01-25T06:31:36.056Z,7.17
2023-01-25T06:34:06.467Z,6.53
2023-01-25T06:36:35.110Z,6.90
2023-01-25T06:39:04.920Z,6.63
2023-01-25T06:41:33.304Z,7.23
2023-01-25T06:44:01.683Z,6.87
2023-01-25T06:46:30.155Z,6.40
2023-01-25T06:48:58.598Z,6.10
2023-01-25T06:51:27.020Z,6.97
2023-01-25T06:53:55.439Z,6.87
2023-01-25T06:56:26.644Z,6.63
2023-01-25T06:58:55.051Z,6.67
2023-01-25T07:01:27.335Z,6.07
2023-01-25T07:03:57.234Z,6.63
2023-01-25T07:06:25.997Z,6.70
2023-01-25T07:08:54.743Z,6.77
2023-01-25T07:11:23.194Z,7.47
2023-01-25T07:13:52.971Z,7.67
2023-01-25T07:16:22.208Z,7.33
2023-01-25T07:18:50.628Z,6.97
2023-01-25T07:21:20.542Z,7.73
2023-01-25T07:23:49.285Z,7.37
2023-01-25T07:26:18.843Z,7.37
2023-01-25T07:28:47.327Z,7.20
2023-01-25T07:31:17.620Z,7.50
2023-01-25T07:33:46.314Z,6.80
2023-01-25T07:36:14.707Z,6.93
2023-01-25T07:38:43.175Z,7.27
2023-01-25T07:41:11.794Z,8.00
2023-01-25T07:43:40.592Z,6.93
2023-01-25T07:46:11.284Z,7.20
2023-01-25T07:48:41.604Z,7.63
2023-01-25T07:51:22.777Z,7.77
2023-01-25T07:53:52.176Z,7.33
2023-01-25T07:56:20.863Z,7.67
2023-01-25T07:58:49.324Z,7.70
2023-01-25T08:01:18.484Z,7.30
2023-01-25T08:03:48.620Z,7.10
2023-01-25T08:06:17.359Z,8.40
2023-01-25T08:08:46.683Z,6.63
2023-01-25T08:11:16.580Z,7.40
2023-01-25T08:13:46.301Z,6.83
2023-01-25T08:16:15.116Z,7.43
2023-01-25T08:18:43.595Z,9.30
2023-01-25T08:21:13.453Z,7.83
2023-01-25T08:23:42.187Z,7.63
2023-01-25T08:26:11.620Z,7.47
2023-01-25T08:28:40.635Z,7.50
2023-01-25T08:31:10.476Z,7.30
2023-01-25T08:33:39.547Z,7.73
2023-01-25T08:36:09.553Z,6.10
2023-01-25T08:38:39.735Z,6.40
2023-01-25T08:41:08.570Z,6.43
2023-01-25T08:43:37.088Z,7.00
2023-01-25T08:46:05.641Z,7.37
2023-01-25T08:48:34.087Z,6.73
2023-01-25T08:51:02.587Z,6.37
2023-01-25T08:53:31.443Z,6.90
2023-01-25T08:56:05.962Z,7.53
2023-01-25T08:58:34.440Z,6.97
2023-01-25T09:01:04.541Z,6.93
2023-01-25T09:03:33.071Z,7.10
2023-01-25T09:06:01.465Z,6.73
2023-01-25T09:08:29.915Z,7.47
2023-01-25T09:11:02.675Z,7.00
2023-01-25T09:13:32.704Z,6.50
2023-01-25T09:16:01.897Z,7.27
2023-01-25T09:18:30.455Z,6.87
2023-01-25T09:24:05.391Z,7.67
2023-01-25T09:26:35.243Z,7.30
2023-01-25T09:29:05.305Z,7.40
2023-01-25T09:31:33.845Z,7.73
2023-01-25T09:34:02.690Z,7.70
2023-01-25T09:36:31.136Z,7.70
2023-01-25T09:38:59.948Z,6.57
2023-01-25T09:41:37.303Z,6.43
2023-01-25T09:44:15.358Z,7.23
2023-01-25T09:46:45.329Z,7.77
2023-01-25T09:49:20.987Z,7.27
2023-01-25T09:51:58.411Z,7.27
2023-01-25T09:54:29.966Z,8.00
2023-01-25T09:57:00.570Z,7.00
2023-01-25T09:59:31.753Z,7.57
2023-01-25T10:02:02.686Z,7.63
2023-01-25T10:04:32.729Z,8.07
2023-01-25T10:07:04.608Z,7.70
2023-01-25T10:09:38.059Z,7.67
2023-01-25T10:12:07.790Z,7.77
2023-01-25T10:14:37.583Z,7.43
2023-01-25T10:17:09.224Z,7.60
2023-01-25T10:19:46.097Z,7.50
2023-01-25T10:22:17.115Z,7.57
2023-01-25T10:25:01.729Z,7.57
2023-01-25T10:27:34.155Z,8.07
2023-01-25T10:30:09.550Z,7.77
2023-01-25T10:32:47.623Z,7.53
2023-01-25T10:35:34.430Z,8.40
2023-01-25T10:38:05.561Z,8.77
2023-01-25T10:40:37.320Z,8.77
2023-01-25T10:43:09.650Z,8.20
2023-01-25T10:45:39.482Z,8.53
2023-01-25T10:48:09.450Z,7.50
2023-01-25T10:50:46.415Z,7.97
2023-01-25T10:53:28.845Z,7.20
2023-01-25T10:56:00.127Z,8.57
2023-01-25T10:58:32.800Z,7.83
2023-01-25T11:01:02.775Z,8.10
2023-01-25T11:03:38.353Z,8.60
2023-01-25T11:06:07.281Z,7.43
2023-01-25T11:08:36.487Z,8.30
2023-01-25T11:11:17.937Z,7.97
2023-01-25T11:13:47.410Z,7.77
2023-01-25T11:16:29.298Z,8.13
2023-01-25T11:18:58.731Z,7.70
2023-01-25T11:21:27.631Z,7.40
2023-01-25T11:24:06.898Z,7.33
2023-01-25T11:26:37.928Z,7.10
2023-01-25T11:29:12.689Z,8.87
2023-01-25T11:31:46.071Z,7.13
2023-01-25T11:34:15.530Z,7.83
2023-01-25T11:36:56.475Z,8.83
2023-01-25T11:39:43.640Z,8.10
2023-01-25T11:42:17.343Z,8.27
2023-01-25T11:44:58.875Z,8.73
2023-01-25T11:47:38.406Z,7.77
2023-01-25T11:50:10.471Z,7.87
2023-01-25T11:52:45.830Z,8.40
2023-01-25T11:55:19.978Z,7.50
2023-01-25T11:57:55.412Z,9.63
2023-01-25T12:00:29.266Z,7.57
2023-01-25T12:03:20.370Z,7.87
2023-01-25T12:05:55.468Z,6.93
2023-01-25T12:08:40.804Z,8.37
2023-01-25T12:11:12.022Z,7.17
2023-01-25T12:13:47.319Z,6.90
2023-01-25T12:16:23.094Z,6.23
2023-01-25T12:19:07.064Z,7.43
2023-01-25T12:21:43.393Z,7.27
2023-01-25T12:24:18.798Z,7.40
2023-01-25T12:26:50.480Z,8.00
2023-01-25T12:29:23.813Z,7.40
2023-01-25T12:31:54.181Z,7.73
2023-01-25T12:34:25.420Z,7.27
2023-01-25T12:36:55.933Z,6.87
2023-01-25T12:39:26.313Z,6.60
2023-01-25T12:41:58.218Z,7.27
2023-01-25T12:44:28.080Z,6.80
2023-01-25T12:46:59.006Z,7.97
2023-01-25T12:49:31.529Z,7.93
2023-01-25T12:52:03.486Z,7.57
2023-01-25T12:54:34.542Z,7.23
2023-01-25T12:57:09.297Z,8.37
2023-01-25T12:59:42.006Z,7.57
2023-01-25T13:02:20.537Z,6.57
2023-01-25T13:05:03.893Z,7.63
2023-01-25T13:07:37.912Z,8.20
2023-01-25T13:10:11.802Z,7.13
2023-01-25T13:12:53.721Z,7.93
2023-01-25T13:15:38.682Z,7.93
2023-01-25T13:18:21.918Z,7.83
2023-01-25T13:20:52.902Z,7.10
2023-01-25T13:23:33.323Z,8.63
2023-01-25T13:26:25.944Z,7.10
2023-01-25T13:28:54.839Z,6.73
2023-01-25T13:31:53.237Z,7.67
2023-01-25T13:34:37.435Z,7.30
2023-01-25T13:37:17.433Z,8.27
2023-01-25T13:39:48.901Z,9.88
2023-01-25T13:42:20.381Z,8.23
2023-01-25T13:44:51.646Z,7.17
2023-01-25T13:47:22.408Z,7.07
2023-01-25T13:49:53.908Z,7.13
2023-01-25T13:52:24.260Z,8.33
2023-01-25T13:54:56.582Z,7.93
2023-01-25T13:57:26.137Z,7.73
2023-01-25T14:00:10.259Z,8.10
2023-01-25T14:02:39.821Z,8.50
2023-01-25T14:05:08.903Z,8.93
2023-01-25T14:07:37.940Z,8.87
2023-01-25T14:10:11.805Z,7.77
2023-01-25T14:12:42.979Z,7.73
2023-01-25T14:15:19.555Z,7.93
2023-01-25T14:17:48.297Z,8.77
2023-01-25T14:20:20.896Z,7.73
2023-01-25T14:22:49.968Z,8.37
2023-01-25T14:25:20.608Z,8.17
2023-01-25T14:27:50.426Z,7.63
2023-01-25T14:30:20.557Z,7.53
2023-01-25T14:32:49.519Z,7.93
2023-01-25T14:35:55.168Z,7.47
2023-01-25T14:38:24.430Z,7.40
2023-01-25T14:40:55.534Z,7.37
2023-01-25T14:43:24.599Z,7.60
2023-01-25T14:45:53.012Z,8.83
2023-01-25T14:48:37.771Z,7.43
2023-01-25T14:51:08.321Z,7.77
2023-01-25T14:53:40.592Z,7.13
2023-01-25T14:56:19.173Z,7.30
2023-01-25T14:58:50.988Z,8.37
2023-01-25T15:01:30.694Z,8.17
2023-01-25T15:03:59.267Z,7.53
2023-01-25T15:06:27.684Z,8.30
2023-01-25T15:08:56.378Z,8.27
2023-01-25T15:11:48.989Z,7.80
2023-01-25T15:14:18.713Z,8.03
2023-01-25T15:16:47.214Z,7.20
2023-01-25T15:19:29.098Z,7.73
2023-01-25T15:21:58.822Z,7.00
2023-01-25T15:24:27.671Z,7.50
2023-01-25T15:26:58.001Z,7.70
2023-01-25T15:29:27.552Z,7.70
2023-01-25T15:31:57.310Z,7.47
2023-01-25T15:34:27.336Z,7.63
2023-01-25T15:36:55.715Z,7.30
2023-01-25T15:39:24.114Z,7.43
2023-01-25T15:41:52.574Z,7.30
2023-01-25T15:44:22.379Z,7.70
2023-01-25T15:46:52.418Z,7.70
2023-01-25T15:49:22.823Z,8.30
2023-01-25T15:51:51.213Z,7.90
2023-01-25T15:54:20.444Z,7.87
2023-01-25T15:56:50.741Z,7.57
2023-01-25T15:59:19.698Z,7.10
2023-01-25T16:01:49.566Z,7.30
2023-01-25T16:04:18.022Z,6.83
2023-01-25T16:06:47.522Z,7.10
2023-01-25T16:09:18.572Z,7.13
2023-01-25T16:11:47.312Z,7.93
2023-01-25T16:14:15.796Z,7.00
2023-01-25T16:16:46.099Z,7.00
2023-01-25T16:19:16.383Z,6.77
2023-01-25T16:21:45.159Z,7.33
2023-01-25T16:24:13.916Z,6.63
2023-01-25T16:26:45.505Z,6.83
2023-01-25T16:29:15.112Z,7.30
2023-01-25T16:31:43.595Z,7.73
2023-01-25T16:34:12.096Z,6.87
2023-01-25T16:36:41.915Z,8.67
2023-01-25T16:39:10.783Z,6.83
2023-01-25T16:41:39.183Z,6.40
2023-01-25T16:44:07.789Z,6.70
2023-01-25T16:46:36.168Z,5.70
2023-01-25T16:49:06.796Z,5.40
2023-01-25T16:51:35.377Z,6.67
2023-01-25T16:54:05.350Z,6.70
2023-01-25T16:56:34.995Z,6.57
2023-01-25T16:59:04.370Z,6.73
2023-01-25T17:01:33.102Z,5.93
2023-01-25T17:04:01.581Z,6.27
2023-01-25T17:06:31.094Z,5.63
2023-01-25T17:09:09.339Z,6.00
2023-01-25T17:11:43.138Z,5.67
2023-01-25T17:14:14.446Z,5.70
2023-01-25T17:16:42.865Z,6.37
2023-01-25T17:19:13.710Z,6.27
2023-01-25T17:21:42.242Z,6.00
2023-01-25T17:24:10.751Z,5.70
2023-01-25T17:26:40.755Z,6.43
2023-01-25T17:29:11.204Z,6.50
2023-01-25T17:31:41.249Z,5.80
2023-01-25T17:34:10.978Z,6.30
2023-01-25T17:36:39.398Z,6.40
2023-01-25T17:39:08.212Z,6.83
2023-01-25T17:41:36.729Z,6.43
2023-01-25T17:44:05.311Z,6.80
2023-01-25T17:46:37.505Z,6.60
2023-01-25T17:49:07.253Z,6.53
2023-01-25T17:51:36.581Z,6.73
2023-01-25T17:54:05.538Z,6.50
2023-01-25T17:56:34.334Z,7.30
2023-01-25T17:59:04.563Z,6.40
2023-01-25T18:01:33.090Z,5.80
2023-01-25T18:04:02.886Z,6.00
2023-01-25T18:06:32.342Z,6.53
2023-01-25T18:09:01.408Z,6.17
2023-01-25T18:11:33.517Z,6.23
2023-01-25T18:14:02.935Z,5.80
2023-01-25T18:16:32.254Z,6.27
2023-01-25T18:19:01.661Z,7.10
2023-01-25T18:21:33.220Z,6.00
2023-01-25T18:24:02.465Z,6.30
2023-01-25T18:26:31.851Z,6.60
2023-01-25T18:29:02.746Z,6.60
2023-01-25T18:31:31.400Z,6.60
2023-01-25T18:33:59.831Z,6.67
2023-01-25T18:36:28.255Z,6.07
2023-01-25T18:38:59.877Z,5.73
2023-01-25T18:41:28.297Z,6.23
2023-01-25T18:43:57.047Z,5.93
2023-01-25T18:46:25.544Z,6.77
2023-01-25T18:48:53.961Z,6.40
2023-01-25T18:51:23.414Z,6.37
2023-01-25T18:53:52.153Z,5.63
2023-01-25T18:56:22.791Z,6.80
2023-01-25T18:58:51.230Z,6.33
2023-01-25T19:01:20.473Z,6.47
2023-01-25T19:03:49.974Z,6.00
2023-01-25T19:06:19.081Z,6.90
2023-01-25T19:08:51.833Z,7.00
2023-01-25T19:11:21.095Z,6.53
2023-01-25T19:13:51.353Z,6.03
2023-01-25T19:16:21.271Z,6.57
2023-01-25T19:18:52.007Z,6.53
2023-01-25T19:21:21.457Z,6.83
2023-01-25T19:23:50.098Z,6.13
2023-01-25T19:26:19.846Z,6.00
2023-01-25T19:28:48.783Z,6.37
2023-01-25T19:31:20.207Z,6.40
2023-01-25T19:33:49.433Z,6.87
2023-01-25T19:36:19.415Z,6.23
2023-01-25T19:38:48.632Z,7.27
2023-01-25T19:41:17.918Z,6.63
2023-01-25T19:43:46.444Z,6.40
2023-01-25T19:46:15.953Z,6.73
2023-01-25T19:48:48.827Z,6.10
2023-01-25T19:51:19.646Z,6.73
2023-01-25T19:53:49.371Z,7.03
2023-01-25T19:56:19.380Z,6.87
2023-01-25T19:58:48.570Z,6.77
2023-01-25T20:01:18.272Z,6.30
2023-01-25T20:03:48.535Z,6.93
2023-01-25T20:06:17.655Z,6.07
2023-01-25T20:08:47.336Z,6.50
2023-01-25T20:11:16.987Z,6.20
2023-01-25T20:13:45.795Z,6.30
2023-01-25T20:16:17.115Z,6.10
2023-01-25T20:18:46.973Z,5.97
2023-01-25T20:21:17.399Z,6.20
2023-01-25T20:23:47.186Z,6.43
2023-01-25T20:26:17.755Z,5.90
2023-01-25T20:28:46.940Z,6.40
2023-01-25T20:31:20.235Z,6.37
2023-01-25T20:33:48.961Z,6.73
2023-01-25T20:36:18.848Z,5.10
2023-01-25T20:38:47.630Z,5.63
2023-01-25T20:41:17.303Z,6.00
2023-01-25T20:43:49.033Z,6.17
2023-01-25T20:46:17.593Z,6.47
2023-01-25T20:48:46.329Z,6.07
2023-01-25T20:51:16.950Z,5.90
2023-01-25T20:53:47.619Z,6.23
2023-01-25T20:56:16.637Z,6.67
2023-01-25T20:58:50.706Z,6.40
2023-01-25T21:01:20.124Z,6.07
2023-01-25T21:03:49.072Z,6.63
2023-01-25T21:06:17.791Z,5.90
2023-01-25T21:08:47.712Z,6.10
2023-01-25T21:11:16.403Z,6.40
2023-01-25T21:13:44.833Z,6.17
2023-01-25T21:16:14.941Z,6.43
2023-01-25T21:18:44.075Z,6.37
2023-01-25T21:21:13.156Z,6.40
2023-01-25T21:23:44.785Z,6.93
2023-01-25T21:26:16.595Z,5.83
2023-01-25T21:28:45.077Z,6.00
2023-01-25T21:31:14.702Z,5.90
2023-01-25T21:33:43.226Z,6.83
2023-01-25T21:36:15.304Z,5.77
2023-01-25T21:38:44.016Z,6.53
2023-01-25T21:41:13.781Z,6.10
2023-01-25T21:44:01.365Z,5.90
2023-01-25T21:46:30.466Z,6.17
2023-01-25T21:49:22.316Z,6.03
2023-01-25T21:51:51.562Z,7.00
2023-01-25T21:54:20.750Z,6.23
2023-01-25T21:56:49.856Z,5.93
2023-01-25T21:59:20.150Z,6.27
2023-01-25T22:01:48.900Z,5.73
2023-01-25T22:04:17.987Z,6.07
2023-01-25T22:06:48.592Z,5.87
2023-01-25T22:09:17.582Z,5.70
2023-01-25T22:11:46.781Z,6.77
2023-01-25T22:14:15.237Z,6.60
2023-01-25T22:16:45.012Z,5.83
2023-01-25T22:19:13.406Z,5.97
2023-01-25T22:21:41.885Z,6.37
2023-01-25T22:24:11.492Z,5.77
2023-01-25T22:26:45.264Z,5.87
2023-01-25T22:29:15.013Z,4.87
2023-01-25T22:31:44.876Z,5.37
2023-01-25T22:34:13.300Z,5.47
2023-01-25T22:36:41.726Z,6.00
2023-01-25T22:39:10.175Z,5.67
2023-01-25T22:41:39.071Z,5.70
2023-01-25T22:44:07.486Z,6.00
2023-01-25T22:46:35.915Z,5.77
2023-01-25T22:49:05.902Z,5.43
2023-01-25T22:51:34.379Z,6.10
2023-01-25T22:54:02.828Z,5.73
2023-01-25T22:56:32.052Z,5.50
2023-01-25T22:59:01.124Z,5.87
2023-01-25T23:01:30.646Z,6.00
2023-01-25T23:03:59.181Z,5.97
2023-01-25T23:06:29.762Z,6.23
2023-01-25T23:09:00.241Z,6.20
2023-01-25T23:11:32.162Z,5.67
2023-01-25T23:14:19.024Z,5.73
2023-01-25T23:16:47.753Z,6.20
2023-01-25T23:19:15.602Z,5.93
2023-01-25T23:21:45.451Z,5.97
2023-01-25T23:24:13.900Z,5.93
2023-01-25T23:26:46.249Z,7.03
2023-01-25T23:29:15.273Z,5.63
2023-01-25T23:31:43.794Z,5.87
2023-01-25T23:34:13.366Z,6.13
2023-01-25T23:36:42.445Z,6.30
2023-01-25T23:39:14.867Z,5.97
2023-01-25T23:41:43.268Z,5.90
2023-01-25T23:44:11.657Z,6.80
2023-01-25T23:46:40.104Z,6.37
2023-01-25T23:49:08.575Z,6.47
2023-01-25T23:51:36.942Z,6.63
2023-01-25T23:54:05.394Z,6.80
2023-01-25T23:56:35.293Z,6.60
2023-01-25T23:59:03.677Z,6.00
